Time;durP1;ratioP1;P1;durP2;ratioP2;P2;SDS_P1;SDS_P2;PMS_P1;PMS_P2;Temp;Humidity;BMP_temperature;BMP_pressure;BME280_temperature;BME280_humidity;BME280_pressure;Samples;Min_cycle;Max_cycle;Signal;HPM_P1;HPM_P2
2023/01/08 00:00:04;;;;;;;137.48;62.50;;;7.60;99.90;;;;;;6257684;22;20003;-92
2023/01/08 00:02:38;;;;;;;116.22;57.83;;;7.60;99.90;;;;;;6285219;22;20007;-92
2023/01/08 00:05:06;;;;;;;121.28;57.38;;;7.60;99.90;;;;;;6257695;22;20014;-92
2023/01/08 00:07:33;;;;;;;118.45;62.78;;;7.60;99.90;;;;;;6257731;22;20011;-91
2023/01/08 00:09:59;;;;;;;123.57;65.38;;;7.50;99.90;;;;;;6257661;22;20010;-92
2023/01/08 00:12:26;;;;;;;118.35;64.07;;;7.50;99.90;;;;;;6257939;22;20007;-91
2023/01/08 00:14:53;;;;;;;127.75;69.82;;;7.50;99.90;;;;;;6257690;22;19999;-94
2023/01/08 00:17:20;;;;;;;119.60;68.00;;;7.50;99.90;;;;;;6258264;22;20011;-92
2023/01/08 00:19:46;;;;;;;123.75;67.75;;;7.50;99.90;;;;;;6257373;22;19995;-93
2023/01/08 00:22:13;;;;;;;127.43;72.13;;;7.50;99.90;;;;;;6257770;22;20011;-91
2023/01/08 06:08:31;;;;;;;31.73;20.98;;;4.30;99.90;;;;;;6303625;22;20110;-92
2023/01/08 06:12:36;;;;;;;;;;;;;;;;;;;;;
2023/01/08 11:42:06;;;;;;;21.38;19.60;;;15.70;99.90;;;;;;6274039;22;20034;-94
2023/01/08 11:44:58;;;;;;;21.52;19.67;;;15.80;99.90;;;;;;6283591;22;20022;-91
2023/01/08 11:47:27;;;;;;;26.00;23.50;;;15.80;99.90;;;;;;6197820;22;20083;-91
2023/01/08 11:50:09;;;;;;;26.05;23.63;;;16.10;99.90;;;;;;6261408;22;20424;-94
2023/01/08 11:53:02;;;;;;;23.63;21.50;;;16.00;99.90;;;;;;6258154;22;20459;-92
2023/01/08 11:55:40;;;;;;;26.02;23.30;;;16.00;99.90;;;;;;6242431;22;20011;-94
2023/01/08 11:58:23;;;;;;;22.77;21.05;;;16.10;99.90;;;;;;6259752;22;20063;-95
2023/01/08 12:01:05;;;;;;;22.80;20.92;;;16.00;99.90;;;;;;6262801;22;20007;-92
2023/01/08 12:03:58;;;;;;;22.38;20.58;;;16.00;99.90;;;;;;6258327;22;20008;-92
2023/01/08 12:06:58;;;;;;;38.05;30.20;;;15.90;99.90;;;;;;6242578;22;20007;-90
2023/01/08 12:09:50;;;;;;;32.83;29.08;;;16.00;99.90;;;;;;6259472;22;20015;-92
2023/01/08 12:12:39;;;;;;;28.63;25.98;;;15.90;99.90;;;;;;6258436;22;20060;-92
2023/01/08 12:15:18;;;;;;;26.20;24.00;;;15.80;99.90;;;;;;6259187;22;20023;-94
2023/01/08 12:18:23;;;;;;;25.85;23.55;;;15.60;99.90;;;;;;6258738;22;20056;-91
2023/01/08 12:21:08;;;;;;;33.80;30.30;;;15.40;99.90;;;;;;6258829;22;20004;-92
2023/01/08 12:23:57;;;;;;;27.20;24.90;;;15.30;99.90;;;;;;6259623;22;20090;-92
2023/01/08 12:26:54;;;;;;;26.08;23.88;;;15.30;99.90;;;;;;6258491;22;20003;-92
2023/01/08 12:29:35;;;;;;;25.65;23.45;;;15.30;99.90;;;;;;6257683;22;20068;-94
2023/01/08 12:32:29;;;;;;;25.10;23.08;;;15.20;99.90;;;;;;6257730;22;20007;-92
2023/01/08 12:35:17;;;;;;;26.20;23.88;;;15.20;99.90;;;;;;6257641;22;20011;-91
2023/01/08 12:38:06;;;;;;;27.88;25.35;;;15.10;99.90;;;;;;6257819;22;20011;-91
2023/01/08 12:40:45;;;;;;;28.75;25.92;;;15.10;99.90;;;;;;6257590;22;20014;-92
2023/01/08 12:43:23;;;;;;;28.58;25.83;;;15.00;99.90;;;;;;6257204;22;20046;-90
2023/01/08 12:45:53;;;;;;;32.95;29.55;;;15.00;99.90;;;;;;6257431;22;20078;-92
2023/01/08 12:48:26;;;;;;;29.45;26.25;;;14.90;99.90;;;;;;6257139;22;20022;-89
2023/01/08 12:50:58;;;;;;;29.85;26.77;;;14.90;99.90;;;;;;6257330;22;20086;-92
2023/01/08 12:53:56;;;;;;;27.65;24.75;;;14.90;99.90;;;;;;6257110;22;20007;-93
2023/01/08 12:57:06;;;;;;;28.13;25.27;;;15.00;99.90;;;;;;6257722;22;20017;-90
2023/01/08 12:59:53;;;;;;;36.33;31.33;;;15.30;99.90;;;;;;6243941;22;20383;-92
2023/01/08 13:02:34;;;;;;;26.27;23.50;;;15.60;99.90;;;;;;6257239;22;20383;-92
2023/01/08 13:05:33;;;;;;;23.15;20.95;;;15.80;99.90;;;;;;6257039;22;20018;-90
2023/01/08 13:08:34;;;;;;;25.95;23.33;;;15.70;99.90;;;;;;6256688;22;20015;-91
2023/01/08 13:11:02;;;;;;;22.25;20.05;;;15.60;99.90;;;;;;6257007;22;20050;-91
2023/01/08 13:13:30;;;;;;;21.08;18.95;;;15.60;99.90;;;;;;6256819;22;20082;-93
2023/01/08 13:16:13;;;;;;;20.60;18.83;;;15.60;99.90;;;;;;6259053;22;20018;-92
2023/01/08 13:18:40;;;;;;;20.73;18.73;;;15.60;99.90;;;;;;6259028;22;20011;-93
2023/01/08 13:21:14;;;;;;;19.98;18.35;;;15.70;99.90;;;;;;6257637;22;20074;-93
2023/01/08 13:23:41;;;;;;;22.08;19.95;;;16.00;99.90;;;;;;6257392;22;20054;-92
2023/01/08 13:26:07;;;;;;;22.05;20.20;;;16.10;99.90;;;;;;6256580;22;20030;-92
2023/01/08 13:28:36;;;;;;;21.88;20.13;;;16.20;99.90;;;;;;6257105;22;20039;-94
2023/01/08 13:31:24;;;;;;;22.40;20.60;;;16.20;99.90;;;;;;6257615;22;20003;-92
2023/01/08 13:33:51;;;;;;;24.50;22.30;;;16.20;99.90;;;;;;6256969;22;20011;-92
2023/01/08 13:36:20;;;;;;;23.38;21.58;;;16.10;99.90;;;;;;6256870;22;20014;-92
2023/01/08 13:38:59;;;;;;;23.63;21.75;;;16.00;99.90;;;;;;6257216;22;20435;-92
2023/01/08 13:41:34;;;;;;;22.90;21.15;;;15.80;99.90;;;;;;6256701;22;20011;-92
2023/01/08 13:44:15;;;;;;;24.05;21.92;;;15.70;99.90;;;;;;6257246;22;20015;-93
2023/01/08 13:46:43;;;;;;;25.92;23.83;;;15.70;99.90;;;;;;6257029;22;20089;-92
2023/01/08 13:49:40;;;;;;;25.15;23.10;;;15.50;99.90;;;;;;6245393;22;20039;-90
2023/01/08 13:52:38;;;;;;;24.33;22.25;;;15.40;99.90;;;;;;6222624;23;20011;-92
2023/01/08 13:55:15;;;;;;;22.80;21.10;;;15.30;99.90;;;;;;6194357;23;20013;-89
2023/01/08 13:57:54;;;;;;;24.80;22.77;;;15.20;99.90;;;;;;6190931;23;20084;-92
2023/01/08 14:00:44;;;;;;;25.45;23.33;;;15.20;99.90;;;;;;6166335;23;20016;-91
2023/01/08 14:03:30;;;;;;;23.88;21.88;;;15.10;99.90;;;;;;6190472;23;20005;-92
2023/01/08 14:06:14;;;;;;;23.13;21.20;;;15.00;99.90;;;;;;6215837;23;20012;-89
2023/01/08 14:08:58;;;;;;;28.90;26.00;;;15.00;99.90;;;;;;6190746;23;20401;-89
2023/01/08 14:11:39;;;;;;;24.42;22.42;;;14.90;99.90;;;;;;6190711;23;20009;-90
2023/01/08 14:14:11;;;;;;;23.63;21.73;;;14.80;99.90;;;;;;6215643;23;20013;-89
2023/01/08 14:16:38;;;;;;;23.90;21.70;;;14.80;99.90;;;;;;6190712;23;20012;-88
2023/01/08 14:19:05;;;;;;;23.35;21.13;;;14.80;99.90;;;;;;6190417;23;20038;-88
2023/01/08 14:21:31;;;;;;;22.95;20.85;;;14.80;99.90;;;;;;6190598;23;20080;-89
2023/01/08 14:23:58;;;;;;;23.52;21.30;;;14.70;99.90;;;;;;6165752;23;20008;-90
2023/01/08 14:26:40;;;;;;;23.48;21.08;;;14.70;99.90;;;;;;6190314;23;20012;-89
2023/01/08 14:29:17;;;;;;;22.40;20.60;;;14.60;99.90;;;;;;6190641;23;20005;-89
2023/01/08 14:31:50;;;;;;;22.83;20.83;;;14.50;99.90;;;;;;6190611;23;20009;-88
2023/01/08 14:34:22;;;;;;;22.67;20.85;;;14.50;99.90;;;;;;6190288;23;20016;-89
2023/01/08 14:36:50;;;;;;;23.40;21.20;;;14.40;99.90;;;;;;6190346;23;20015;-88
2023/01/08 14:39:35;;;;;;;22.42;20.42;;;14.40;99.90;;;;;;6190519;23;20070;-88
2023/01/08 14:44:56;;;;;;;26.08;21.05;;;14.20;99.90;;;;;;6215816;23;19953;-90
2023/01/08 14:47:33;;;;;;;22.92;20.73;;;14.20;99.90;;;;;;6190427;23;20095;-88
2023/01/08 14:50:00;;;;;;;24.13;21.65;;;14.10;99.90;;;;;;6191417;23;20036;-89
2023/01/08 14:52:27;;;;;;;24.50;22.13;;;14.10;99.90;;;;;;6166485;23;20013;-89
2023/01/08 14:54:58;;;;;;;24.63;22.33;;;14.10;99.90;;;;;;6190431;23;20054;-89
2023/01/08 14:57:26;;;;;;;24.60;22.10;;;14.00;99.90;;;;;;6190499;23;20335;-89
2023/01/08 14:59:58;;;;;;;27.33;24.48;;;13.90;99.90;;;;;;6190259;23;20007;-88
2023/01/08 15:02:33;;;;;;;24.83;22.38;;;13.90;99.90;;;;;;6165711;23;20103;-88
2023/01/08 15:05:18;;;;;;;24.23;21.83;;;13.80;99.90;;;;;;6190232;23;20020;-88
2023/01/08 15:08:01;;;;;;;23.98;21.52;;;13.80;99.90;;;;;;6190418;23;20024;-89
2023/01/08 15:10:41;;;;;;;26.65;23.85;;;13.70;99.90;;;;;;6190747;23;20012;-89
2023/01/08 15:13:28;;;;;;;26.67;23.73;;;13.60;99.90;;;;;;6191187;23;20021;-87
2023/01/08 15:16:06;;;;;;;28.95;23.55;;;13.50;99.90;;;;;;6165631;23;20008;-88
2023/01/08 15:18:54;;;;;;;23.38;21.20;;;13.40;99.90;;;;;;6190354;23;20011;-88
2023/01/08 15:21:23;;;;;;;24.13;21.55;;;13.30;99.90;;;;;;6190506;23;20342;-88
2023/01/08 15:23:55;;;;;;;22.50;20.30;;;13.20;99.90;;;;;;6190200;23;20008;-90
2023/01/08 15:26:25;;;;;;;24.23;21.65;;;13.10;99.90;;;;;;6190238;23;20062;-91
2023/01/08 15:28:54;;;;;;;25.63;21.13;;;13.00;99.90;;;;;;6190596;23;20009;-89
2023/01/08 15:31:27;;;;;;;24.75;22.00;;;12.90;99.90;;;;;;6190434;23;20008;-89
2023/01/08 15:33:56;;;;;;;24.90;21.85;;;12.80;99.90;;;;;;6215309;23;20015;-89
2023/01/08 15:36:22;;;;;;;25.80;22.20;;;12.70;99.90;;;;;;6190339;23;20008;-89
2023/01/08 15:38:51;;;;;;;25.63;22.27;;;12.60;99.90;;;;;;6190145;23;20008;-89
2023/01/08 15:44:11;;;;;;;24.63;21.30;;;12.50;99.90;;;;;;6215655;23;20067;-90
2023/01/08 15:46:38;;;;;;;24.35;21.75;;;12.40;99.90;;;;;;6190487;23;20005;-90
2023/01/08 15:49:04;;;;;;;27.60;23.02;;;12.30;99.90;;;;;;6191277;23;20031;-89
2023/01/08 15:51:33;;;;;;;25.75;22.90;;;12.20;99.90;;;;;;6192207;23;20005;-91
2023/01/08 15:54:00;;;;;;;28.38;22.17;;;12.10;99.90;;;;;;6192025;23;20005;-93
2023/01/08 15:56:27;;;;;;;32.58;25.60;;;11.90;99.90;;;;;;6192099;23;20011;-89
2023/01/08 15:58:53;;;;;;;44.65;32.35;;;11.80;99.90;;;;;;6217502;23;20012;-90
2023/01/08 16:01:20;;;;;;;50.47;34.13;;;11.80;99.90;;;;;;6192338;23;20067;-90
2023/01/08 16:03:49;;;;;;;37.83;28.83;;;11.70;99.90;;;;;;6192666;23;20015;-89
2023/01/08 16:06:15;;;;;;;41.50;28.65;;;11.60;99.90;;;;;;6192404;23;20334;-91
2023/01/08 16:08:44;;;;;;;44.53;32.08;;;11.50;99.90;;;;;;6192375;23;20021;-89
2023/01/08 16:11:18;;;;;;;48.90;36.08;;;11.50;99.90;;;;;;6193618;23;20020;-90
2023/01/08 16:13:48;;;;;;;55.13;35.20;;;11.40;99.90;;;;;;6193469;23;20023;-90
2023/01/08 16:16:15;;;;;;;51.55;35.63;;;11.30;99.90;;;;;;6192151;23;20240;-89
2023/01/08 16:18:44;;;;;;;51.38;34.55;;;11.20;99.90;;;;;;6217240;23;20040;-91
2023/01/08 16:21:12;;;;;;;54.00;38.03;;;11.20;99.90;;;;;;6191830;23;20345;-89
2023/01/08 16:23:39;;;;;;;48.38;34.75;;;11.10;99.90;;;;;;6216270;23;20012;-88
2023/01/08 16:26:08;;;;;;;57.40;35.67;;;11.10;99.90;;;;;;6216224;23;20103;-89
2023/01/08 16:28:35;;;;;;;51.55;37.45;;;11.00;99.90;;;;;;6215962;23;20021;-90
2023/01/08 16:31:05;;;;;;;56.35;40.92;;;11.00;99.90;;;;;;6216266;23;20016;-89
2023/01/08 16:33:32;;;;;;;65.80;44.10;;;11.00;99.90;;;;;;6215911;23;20190;-88
2023/01/08 16:36:04;;;;;;;67.22;44.78;;;11.00;99.90;;;;;;6216175;23;20508;-89
2023/01/08 16:38:32;;;;;;;57.45;41.10;;;11.00;99.90;;;;;;6215604;23;20005;-89
2023/01/08 16:41:05;;;;;;;62.03;42.65;;;11.00;99.90;;;;;;6215774;23;20042;-88
2023/01/08 16:43:38;;;;;;;62.13;43.60;;;11.00;99.90;;;;;;6211493;23;20031;-89
2023/01/08 16:46:17;;;;;;;60.17;42.63;;;11.00;99.90;;;;;;6215396;23;20035;-89
2023/01/08 16:48:45;;;;;;;64.03;40.63;;;11.00;99.90;;;;;;6229929;23;20346;-90
2023/01/08 16:51:12;;;;;;;59.50;39.50;;;11.10;99.90;;;;;;6189435;23;20018;-89
2023/01/08 16:53:42;;;;;;;51.33;39.08;;;11.10;99.90;;;;;;6220128;23;20008;-89
2023/01/08 16:56:09;;;;;;;53.72;38.53;;;11.10;99.90;;;;;;6220484;23;20012;-91
2023/01/08 16:58:36;;;;;;;54.90;39.17;;;11.10;99.90;;;;;;6220776;23;20000;-89
2023/01/08 17:01:08;;;;;;;59.92;41.47;;;11.20;99.90;;;;;;6220542;23;20047;-89
2023/01/08 17:03:35;;;;;;;63.08;41.60;;;11.20;99.90;;;;;;6221554;23;20008;-89
2023/01/08 17:06:09;;;;;;;59.35;37.92;;;11.20;99.90;;;;;;6221518;23;20338;-91
2023/01/08 17:08:38;;;;;;;57.72;39.75;;;11.20;99.90;;;;;;6221503;23;20024;-90
2023/01/08 17:11:11;;;;;;;63.95;39.75;;;11.20;99.90;;;;;;6221636;23;20015;-89
2023/01/08 17:13:37;;;;;;;59.10;38.58;;;11.30;99.90;;;;;;6221284;23;20008;-92
2023/01/08 17:16:09;;;;;;;52.35;37.20;;;11.20;99.90;;;;;;6221195;23;20035;-88
2023/01/08 17:18:36;;;;;;;46.90;34.78;;;11.20;99.90;;;;;;6222233;23;20011;-91
2023/01/08 17:21:03;;;;;;;48.58;33.08;;;11.20;99.90;;;;;;6221798;23;20012;-89
2023/01/08 17:23:30;;;;;;;53.88;34.05;;;11.20;99.90;;;;;;6222256;23;20008;-90
2023/01/08 17:25:59;;;;;;;51.92;34.28;;;11.20;99.90;;;;;;6192591;23;20004;-89
2023/01/08 17:28:29;;;;;;;74.55;47.50;;;11.20;99.90;;;;;;6225859;23;20028;-90
2023/01/08 17:31:11;;;;;;;61.85;41.25;;;11.20;99.90;;;;;;6224259;23;20078;-90
2023/01/08 17:33:39;;;;;;;59.85;41.63;;;11.20;99.90;;;;;;6224208;23;20099;-90
2023/01/08 17:36:25;;;;;;;54.72;37.40;;;11.20;99.90;;;;;;6220659;23;20008;-89
2023/01/08 17:38:53;;;;;;;51.42;36.45;;;11.20;99.90;;;;;;6220944;23;20009;-89
2023/01/08 17:44:08;;;;;;;47.65;34.72;;;11.10;99.90;;;;;;6247251;23;20323;-89
2023/01/08 17:46:35;;;;;;;66.60;43.42;;;11.10;99.90;;;;;;6220956;23;20004;-90
2023/01/08 17:49:03;;;;;;;53.75;36.63;;;11.10;99.90;;;;;;6220286;23;20016;-89
2023/01/08 17:51:31;;;;;;;46.08;34.35;;;11.10;99.90;;;;;;6245820;23;20083;-90
2023/01/08 17:53:58;;;;;;;53.83;35.17;;;11.10;99.90;;;;;;6220813;23;20016;-90
2023/01/08 17:56:25;;;;;;;60.05;38.38;;;11.10;99.90;;;;;;6220960;23;20008;-91
2023/01/08 17:58:52;;;;;;;62.65;40.45;;;11.10;99.90;;;;;;6221690;23;20417;-92
2023/01/08 18:01:20;;;;;;;72.82;44.03;;;11.00;99.90;;;;;;6220834;23;20008;-91
2023/01/08 18:03:46;;;;;;;68.75;45.20;;;11.00;99.90;;;;;;6220995;23;20008;-89
2023/01/08 18:06:13;;;;;;;71.47;46.58;;;11.00;99.90;;;;;;6220501;23;20018;-91
2023/01/08 18:08:40;;;;;;;72.00;46.97;;;11.00;99.90;;;;;;6220876;23;20012;-90
2023/01/08 18:11:08;;;;;;;68.25;46.05;;;11.00;99.90;;;;;;6220879;23;20032;-91
2023/01/08 18:13:36;;;;;;;64.53;44.20;;;10.90;99.90;;;;;;6221690;23;20087;-91
2023/01/08 18:16:13;;;;;;;67.00;45.60;;;10.90;99.90;;;;;;6221228;23;20023;-91
2023/01/08 18:18:40;;;;;;;66.35;45.78;;;10.80;99.90;;;;;;6221448;23;20008;-91
2023/01/08 18:21:06;;;;;;;61.28;41.90;;;10.80;99.90;;;;;;6221931;23;20004;-90
2023/01/08 18:23:33;;;;;;;65.55;46.28;;;10.80;99.90;;;;;;6221641;23;20012;-92
2023/01/08 18:26:08;;;;;;;61.72;41.53;;;10.80;99.90;;;;;;6220758;23;20083;-91
2023/01/08 18:28:35;;;;;;;65.90;46.33;;;10.80;99.90;;;;;;6221862;23;20025;-89
2023/01/08 18:31:06;;;;;;;72.18;48.97;;;10.80;99.90;;;;;;6221286;23;20039;-92
2023/01/08 18:33:34;;;;;;;71.40;46.47;;;10.70;99.90;;;;;;6221142;23;20025;-91
2023/01/08 18:36:05;;;;;;;76.80;45.28;;;10.70;99.90;;;;;;6220966;23;20000;-90
2023/01/08 18:38:35;;;;;;;64.53;43.97;;;10.80;99.90;;;;;;6220653;23;20012;-91
2023/01/08 18:41:03;;;;;;;71.25;47.63;;;10.70;99.90;;;;;;6220506;23;20067;-91
2023/01/08 18:43:30;;;;;;;76.13;48.70;;;10.80;99.90;;;;;;6220163;23;20008;-90
2023/01/08 18:46:03;;;;;;;85.00;52.33;;;10.80;99.90;;;;;;6220152;23;20781;-92
2023/01/08 18:48:30;;;;;;;79.07;47.53;;;10.80;99.90;;;;;;6194904;23;20048;-92
2023/01/08 18:50:56;;;;;;;73.63;46.47;;;10.80;99.90;;;;;;6245896;23;20146;-90
2023/01/08 18:53:23;;;;;;;74.97;47.13;;;10.90;99.90;;;;;;6220565;23;20023;-92
2023/01/08 18:55:49;;;;;;;75.30;49.40;;;10.90;99.90;;;;;;6220435;23;20445;-95
2023/01/08 18:58:16;;;;;;;64.85;42.95;;;10.90;99.90;;;;;;6222436;23;20434;-92
2023/01/08 19:00:42;;;;;;;59.22;41.33;;;11.00;99.90;;;;;;6222156;23;20079;-92
2023/01/08 19:03:11;;;;;;;59.50;39.80;;;11.10;99.90;;;;;;6221514;23;19996;-91
2023/01/08 19:05:43;;;;;;;55.00;37.92;;;11.10;99.90;;;;;;6220661;23;20494;-94
2023/01/08 19:08:10;;;;;;;56.78;38.50;;;11.20;99.90;;;;;;6221558;23;20016;-94
2023/01/08 19:10:38;;;;;;;54.08;36.90;;;11.30;99.90;;;;;;6221555;23;20082;-90
2023/01/08 19:13:05;;;;;;;54.40;38.08;;;11.30;99.90;;;;;;6221681;23;20012;-92
2023/01/08 19:15:32;;;;;;;54.05;37.40;;;11.40;99.90;;;;;;6221184;23;20053;-92
2023/01/08 19:17:59;;;;;;;51.92;36.35;;;11.40;99.90;;;;;;6220612;23;20066;-91
2023/01/08 19:20:26;;;;;;;53.78;37.80;;;11.40;99.90;;;;;;6220835;23;20000;-89
2023/01/08 19:22:52;;;;;;;54.25;39.10;;;11.40;99.90;;;;;;6220867;23;20019;-89
2023/01/08 19:25:19;;;;;;;53.10;39.30;;;11.40;99.90;;;;;;6247592;23;20007;-90
2023/01/08 19:27:46;;;;;;;52.28;37.53;;;11.50;99.90;;;;;;6249251;23;20110;-92
2023/01/08 19:30:12;;;;;;;55.38;39.95;;;11.50;99.90;;;;;;6248490;23;20004;-88
2023/01/08 19:32:39;;;;;;;61.78;43.83;;;11.50;99.90;;;;;;6222022;22;20441;-92
2023/01/08 19:35:05;;;;;;;62.92;43.90;;;11.40;99.90;;;;;;6247347;23;20011;-90
2023/01/08 19:37:32;;;;;;;54.50;40.75;;;11.50;99.90;;;;;;6247097;23;20046;-91
2023/01/08 19:40:00;;;;;;;59.17;41.85;;;11.50;99.90;;;;;;6246702;23;20004;-92
2023/01/08 19:45:12;;;;;;;50.90;38.35;;;11.50;99.90;;;;;;6246630;23;20008;-91
2023/01/08 19:47:39;;;;;;;51.28;39.40;;;11.50;99.90;;;;;;6247442;23;20496;-93
2023/01/08 19:50:06;;;;;;;49.60;36.05;;;11.40;99.90;;;;;;6223058;23;20020;-92
2023/01/08 19:52:32;;;;;;;46.65;35.88;;;11.40;99.90;;;;;;6250258;23;20023;-91
2023/01/08 19:55:02;;;;;;;41.80;30.75;;;11.40;99.90;;;;;;6250311;23;20035;-93
2023/01/08 19:57:29;;;;;;;39.55;29.65;;;11.40;99.90;;;;;;6250545;23;20004;-90
2023/01/08 19:59:55;;;;;;;41.90;29.35;;;11.40;99.90;;;;;;6224431;23;20042;-89
2023/01/08 20:02:22;;;;;;;35.88;27.48;;;11.30;99.90;;;;;;6226074;23;20008;-90
2023/01/08 20:04:48;;;;;;;36.85;27.95;;;11.30;99.90;;;;;;6225750;23;20081;-92
2023/01/08 20:07:15;;;;;;;42.20;30.13;;;11.30;99.90;;;;;;6224566;23;20341;-92
2023/01/08 20:09:42;;;;;;;43.88;30.88;;;11.30;99.90;;;;;;6223421;23;20035;-90
2023/01/08 20:12:09;;;;;;;44.55;31.75;;;11.30;99.90;;;;;;6229183;23;20120;-90
2023/01/08 20:14:36;;;;;;;53.28;37.22;;;11.30;99.90;;;;;;6223571;23;20012;-89
2023/01/08 20:17:02;;;;;;;57.03;37.88;;;11.30;99.90;;;;;;6225226;23;20004;-90
2023/01/08 20:19:29;;;;;;;60.55;37.88;;;11.30;99.90;;;;;;6226219;23;20008;-91
2023/01/08 20:21:58;;;;;;;56.28;36.10;;;11.30;99.90;;;;;;6231705;23;20052;-88
2023/01/08 20:24:24;;;;;;;51.58;33.33;;;11.30;99.90;;;;;;6230928;23;20012;-93
2023/01/08 20:26:51;;;;;;;48.75;35.00;;;11.30;99.90;;;;;;6226420;23;20042;-90
2023/01/08 20:29:17;;;;;;;53.70;34.60;;;11.30;99.90;;;;;;6228081;23;20035;-91
2023/01/08 20:31:44;;;;;;;50.58;36.80;;;11.20;99.90;;;;;;6222463;23;20004;-90
2023/01/08 20:34:14;;;;;;;52.85;38.55;;;11.20;99.90;;;;;;6221852;23;20078;-91
2023/01/08 20:36:43;;;;;;;54.67;38.75;;;11.20;99.90;;;;;;6222246;23;20438;-91
2023/01/08 20:39:13;;;;;;;63.58;41.85;;;11.20;99.90;;;;;;6222974;23;20011;-91
2023/01/08 20:41:41;;;;;;;55.90;38.67;;;11.20;99.90;;;;;;6222330;23;20020;-90
2023/01/08 20:44:09;;;;;;;50.13;37.50;;;11.20;99.90;;;;;;6222309;23;20012;-92
2023/01/08 20:46:37;;;;;;;47.15;35.70;;;11.20;99.90;;;;;;6221958;23;20337;-91
2023/01/08 20:49:06;;;;;;;52.50;35.33;;;11.20;99.90;;;;;;6221603;23;20024;-91
2023/01/08 20:51:35;;;;;;;46.05;34.20;;;11.20;99.90;;;;;;6222009;23;20434;-89
2023/01/08 20:54:04;;;;;;;43.45;34.38;;;11.20;99.90;;;;;;6221744;23;20008;-90
2023/01/08 20:56:31;;;;;;;48.45;33.25;;;11.10;99.90;;;;;;6222212;23;20011;-88
2023/01/08 20:59:00;;;;;;;53.45;37.20;;;11.10;99.90;;;;;;6223499;23;20011;-90
2023/01/08 21:01:32;;;;;;;53.28;38.15;;;11.10;99.90;;;;;;6226294;23;20011;-92
2023/01/08 21:04:01;;;;;;;54.33;38.20;;;11.10;99.90;;;;;;6228290;23;20004;-90
2023/01/08 21:06:29;;;;;;;43.97;33.15;;;11.10;99.90;;;;;;6221812;23;20008;-89
2023/01/08 21:08:59;;;;;;;49.90;36.53;;;11.10;99.90;;;;;;6221215;23;20020;-89
2023/01/08 21:11:26;;;;;;;50.47;35.58;;;11.00;99.90;;;;;;6221828;23;20435;-90
2023/01/08 21:13:54;;;;;;;45.10;35.28;;;11.10;99.90;;;;;;6221534;23;20099;-89
2023/01/08 21:16:24;;;;;;;49.05;37.22;;;11.00;99.90;;;;;;6221522;23;20004;-88
2023/01/08 21:18:53;;;;;;;75.32;45.42;;;11.00;99.90;;;;;;6221957;23;20008;-89
2023/01/08 21:21:35;;;;;;;67.00;45.50;;;11.00;99.90;;;;;;6221611;23;20008;-89
2023/01/08 21:24:04;;;;;;;58.45;40.13;;;11.10;99.90;;;;;;6221600;23;20004;-89
2023/01/08 21:26:35;;;;;;;56.70;40.05;;;11.00;99.90;;;;;;6221672;23;20008;-89
2023/01/08 21:29:02;;;;;;;62.65;41.13;;;11.00;99.90;;;;;;6221673;23;20027;-90
2023/01/08 21:31:29;;;;;;;56.78;40.33;;;11.00;99.90;;;;;;6221881;23;20004;-92
2023/01/08 21:33:57;;;;;;;56.10;40.17;;;11.00;99.90;;;;;;6221555;23;20087;-89
2023/01/08 21:36:26;;;;;;;58.80;40.28;;;11.00;99.90;;;;;;6221264;23;20008;-90
2023/01/08 21:38:53;;;;;;;52.13;37.95;;;11.00;99.90;;;;;;6221835;23;20397;-88
2023/01/08 21:46:59;;;;;;;58.08;39.28;;;11.00;99.90;;;;;;6246043;23;20095;-91
2023/01/08 21:49:26;;;;;;;56.03;39.83;;;10.90;99.90;;;;;;6215025;23;20021;-90
2023/01/08 21:54:40;;;;;;;56.67;38.65;;;11.00;99.90;;;;;;6215846;23;20105;-89
2023/01/08 21:57:07;;;;;;;52.72;37.00;;;10.90;99.90;;;;;;6215242;23;20005;-90
2023/01/08 21:59:34;;;;;;;54.05;36.17;;;10.90;99.90;;;;;;6190193;23;20489;-88
2023/01/08 22:02:00;;;;;;;55.90;38.17;;;10.90;99.90;;;;;;6189956;23;20139;-90
2023/01/08 22:04:27;;;;;;;60.00;37.78;;;10.80;99.90;;;;;;6165115;23;20442;-90
2023/01/08 22:06:53;;;;;;;50.45;36.40;;;10.80;99.90;;;;;;6166524;23;20127;-90
2023/01/08 22:09:20;;;;;;;54.58;37.60;;;10.80;99.90;;;;;;6165855;23;20075;-89
2023/01/08 22:11:46;;;;;;;51.97;36.35;;;10.80;99.90;;;;;;6214843;23;20019;-90
2023/01/08 22:14:13;;;;;;;53.55;36.42;;;10.80;99.90;;;;;;6215145;23;20012;-91
2023/01/08 22:16:40;;;;;;;54.47;37.50;;;10.70;99.90;;;;;;6190192;23;20362;-90
2023/01/08 22:19:08;;;;;;;53.17;33.72;;;10.80;99.90;;;;;;6165626;23;20068;-89
2023/01/08 22:21:35;;;;;;;41.38;30.55;;;10.80;99.90;;;;;;6195759;23;20008;-89
2023/01/08 22:24:01;;;;;;;44.38;32.28;;;10.80;99.90;;;;;;6195753;23;20430;-89
2023/01/08 22:26:27;;;;;;;46.08;32.63;;;10.80;99.90;;;;;;6221048;23;20430;-89
2023/01/08 22:28:54;;;;;;;46.33;31.58;;;10.80;99.90;;;;;;6195921;23;20016;-88
2023/01/08 22:31:21;;;;;;;51.30;33.40;;;10.80;99.90;;;;;;6221004;23;20035;-89
2023/01/08 22:33:47;;;;;;;43.35;30.60;;;10.80;99.90;;;;;;6160859;23;20013;-89
2023/01/08 22:36:13;;;;;;;42.85;30.65;;;10.80;99.90;;;;;;6185246;23;20005;-89
2023/01/08 22:38:40;;;;;;;40.72;29.30;;;10.70;99.90;;;;;;6188865;23;20012;-88
2023/01/08 22:41:24;;;;;;;40.38;28.33;;;10.80;99.90;;;;;;6166650;23;20198;-88
2023/01/08 22:43:55;;;;;;;33.53;27.33;;;10.80;99.90;;;;;;6190122;23;20012;-89
2023/01/08 22:46:23;;;;;;;36.05;28.17;;;10.80;99.90;;;;;;6184774;23;20017;-88
2023/01/08 22:48:50;;;;;;;37.20;27.33;;;10.90;99.90;;;;;;6184427;23;20021;-89
2023/01/08 22:51:19;;;;;;;40.58;28.80;;;10.90;99.90;;;;;;6185099;23;20100;-88
2023/01/08 22:53:45;;;;;;;38.20;29.05;;;10.90;99.90;;;;;;6184846;23;20013;-88
2023/01/08 22:56:13;;;;;;;36.58;27.27;;;10.90;99.90;;;;;;6160200;23;20010;-89
2023/01/08 22:58:41;;;;;;;36.20;27.38;;;10.90;99.90;;;;;;6160990;23;20013;-89
2023/01/08 23:01:16;;;;;;;43.70;28.60;;;10.90;99.90;;;;;;6186466;23;20025;-90
2023/01/08 23:03:44;;;;;;;35.10;27.30;;;10.90;99.90;;;;;;6188596;23;20013;-89
2023/01/08 23:06:12;;;;;;;40.05;28.58;;;10.90;99.90;;;;;;6217726;23;20434;-90
2023/01/08 23:08:41;;;;;;;30.65;25.40;;;10.90;99.90;;;;;;6217470;23;20345;-90
2023/01/08 23:11:09;;;;;;;33.67;26.77;;;10.90;99.90;;;;;;6217465;23;20028;-90
2023/01/08 23:13:37;;;;;;;38.53;26.58;;;10.80;99.90;;;;;;6217497;23;20015;-89
2023/01/08 23:16:07;;;;;;;36.17;27.05;;;10.80;99.90;;;;;;6217576;23;20031;-89
2023/01/08 23:18:35;;;;;;;33.22;27.20;;;10.80;99.90;;;;;;6217299;23;20338;-91
2023/01/08 23:21:14;;;;;;;42.67;29.90;;;10.70;99.90;;;;;;6192330;23;20435;-89
2023/01/08 23:23:41;;;;;;;39.92;28.58;;;10.70;99.90;;;;;;6217373;23;20015;-88
2023/01/08 23:26:18;;;;;;;37.45;28.85;;;10.70;99.90;;;;;;6192307;23;20032;-91
2023/01/08 23:28:46;;;;;;;38.80;27.58;;;10.70;99.90;;;;;;6217230;23;20095;-89
2023/01/08 23:31:15;;;;;;;42.08;28.98;;;10.60;99.90;;;;;;6192402;23;20059;-90
2023/01/08 23:33:42;;;;;;;54.60;32.97;;;10.50;99.90;;;;;;6217412;23;20013;-89
2023/01/08 23:36:17;;;;;;;40.42;27.42;;;10.40;99.90;;;;;;6192380;23;20123;-91
2023/01/08 23:38:54;;;;;;;51.75;32.63;;;10.30;99.90;;;;;;6192252;23;20008;-92
2023/01/08 23:41:29;;;;;;;40.15;27.65;;;10.30;99.90;;;;;;6217320;23;20034;-91
2023/01/08 23:43:58;;;;;;;34.42;26.52;;;10.30;99.90;;;;;;6217124;23;20012;-90
2023/01/08 23:46:26;;;;;;;40.63;29.08;;;10.20;99.90;;;;;;6217451;23;20035;-92
2023/01/08 23:48:53;;;;;;;35.13;26.25;;;10.20;99.90;;;;;;6208114;23;20028;-91
2023/01/08 23:51:20;;;;;;;32.50;25.10;;;10.30;99.90;;;;;;6248001;23;20004;-91
2023/01/08 23:53:46;;;;;;;32.75;25.63;;;10.40;99.90;;;;;;6222608;23;20019;-89
2023/01/08 23:56:13;;;;;;;27.38;21.23;;;10.40;99.90;;;;;;6222898;23;20027;-91
2023/01/08 23:58:39;;;;;;;31.15;22.25;;;10.50;99.90;;;;;;6222491;23;20008;-89
